Time;durP1;ratioP1;P1;durP2;ratioP2;P2;SDS_P1;SDS_P2;PMS_P1;PMS_P2;Temp;Humidity;BMP_temperature;BMP_pressure;BME280_temperature;BME280_humidity;BME280_pressure;Samples;Min_cycle;Max_cycle;Signal;HPM_P1;HPM_P2
2023/10/20 00:01:42;;;;;;;;;;;8.80;99.90;;;;;;4861480;29;19928;-86
2023/10/20 00:04:08;;;;;;;;;;;8.80;99.90;;;;;;4860751;29;19935;-86
2023/10/20 00:06:33;;;;;;;;;;;8.80;99.90;;;;;;4861551;29;19939;-88
2023/10/20 00:08:59;;;;;;;;;;;8.80;99.90;;;;;;4860132;29;19928;-86
2023/10/20 00:11:25;;;;;;;;;;;8.80;99.90;;;;;;4845019;29;19935;-86
2023/10/20 00:13:51;;;;;;;;;;;8.80;99.90;;;;;;4861805;29;19928;-84
2023/10/20 00:16:27;;;;;;;;;;;8.80;99.90;;;;;;4860451;29;19983;-85
2023/10/20 00:18:52;;;;;;;;;;;8.80;99.90;;;;;;4860203;29;19928;-84
2023/10/20 00:21:18;;;;;;;;;;;8.70;99.90;;;;;;4861317;29;19984;-84
2023/10/20 00:23:44;;;;;;;;;;;8.70;99.90;;;;;;4861058;29;19932;-87
2023/10/20 00:26:10;;;;;;;;;;;8.80;99.90;;;;;;4861387;29;19931;-86
2023/10/20 00:28:35;;;;;;;;;;;8.80;99.90;;;;;;4861197;29;19984;-85
2023/10/20 00:31:01;;;;;;;;;;;8.80;99.90;;;;;;4830521;29;19957;-88
2023/10/20 00:33:26;;;;;;;;;;;8.70;99.90;;;;;;4860251;29;20368;-88
2023/10/20 00:35:53;;;;;;;;;;;8.70;99.90;;;;;;4861319;29;19984;-88
2023/10/20 00:38:18;;;;;;;;;;;8.70;99.90;;;;;;4861187;29;19935;-86
2023/10/20 00:40:45;;;;;;;;;;;8.70;99.90;;;;;;4860388;29;19936;-87
2023/10/20 00:43:10;;;;;;;;;;;8.70;99.90;;;;;;4844863;29;19965;-86
2023/10/20 00:45:36;;;;;;;;;;;8.70;99.90;;;;;;4860011;29;19928;-88
2023/10/20 00:48:02;;;;;;;;;;;8.70;99.90;;;;;;4860051;29;19928;-85
2023/10/20 00:50:28;;;;;;;;;;;8.70;99.90;;;;;;4861408;29;19985;-85
2023/10/20 00:52:54;;;;;;;;;;;8.70;99.90;;;;;;4863897;29;19928;-84
2023/10/20 00:55:20;;;;;;;;;;;8.70;99.90;;;;;;4845570;29;19935;-88
2023/10/20 00:57:45;;;;;;;;;;;8.70;99.90;;;;;;4860586;29;19935;-86
2023/10/20 01:00:13;;;;;;;;;;;8.70;99.90;;;;;;4860158;29;19928;-86
2023/10/20 01:02:39;;;;;;;;;;;8.70;99.90;;;;;;4860257;29;19950;-83
2023/10/20 01:05:08;;;;;;;;;;;8.70;99.90;;;;;;4844898;29;19924;-88
2023/10/20 01:07:34;;;;;;;;;;;8.70;99.90;;;;;;4862899;29;19967;-86
2023/10/20 01:10:00;;;;;;;;;;;8.70;99.90;;;;;;4863280;29;19928;-85
2023/10/20 01:12:26;;;;;;;;;;;8.70;99.90;;;;;;4864500;29;19996;-87
2023/10/20 01:14:52;;;;;;;;;;;8.70;99.90;;;;;;4864144;29;20332;-86
2023/10/20 01:17:17;;;;;;;;;;;8.70;99.90;;;;;;4847947;29;20023;-86
2023/10/20 01:19:44;;;;;;;;;;;8.70;99.90;;;;;;4864170;29;19928;-86
2023/10/20 01:22:10;;;;;;;;;;;8.70;99.90;;;;;;4864280;29;19928;-86
2023/10/20 01:24:35;;;;;;;;;;;8.70;99.90;;;;;;4863031;29;20398;-87
2023/10/20 01:27:01;;;;;;;;;;;8.70;99.90;;;;;;4863778;29;19928;-86
2023/10/20 01:29:26;;;;;;;;;;;8.70;99.90;;;;;;4864434;29;19928;-85
2023/10/20 01:31:52;;;;;;;;;;;8.70;99.90;;;;;;4864453;29;19928;-86
2023/10/20 01:34:17;;;;;;;;;;;8.70;99.90;;;;;;4864458;29;19935;-86
2023/10/20 01:36:43;;;;;;;;;;;8.70;99.90;;;;;;4863707;29;19931;-87
2023/10/20 01:39:09;;;;;;;;;;;8.70;99.90;;;;;;4862643;29;20046;-86
2023/10/20 01:41:34;;;;;;;;;;;8.70;99.90;;;;;;4863803;29;19932;-86
2023/10/20 01:44:00;;;;;;;;;;;8.70;99.90;;;;;;4862692;29;20338;-85
2023/10/20 01:46:25;;;;;;;;;;;8.70;99.90;;;;;;4862599;29;19931;-87
2023/10/20 01:48:51;;;;;;;;;;;8.60;99.90;;;;;;4862331;29;19928;-86
2023/10/20 01:51:17;;;;;;;;;;;8.60;99.90;;;;;;4862516;29;19979;-85
2023/10/20 01:53:43;;;;;;;;;;;8.70;99.90;;;;;;4863401;29;19931;-86
2023/10/20 01:56:08;;;;;;;;;;;8.70;99.90;;;;;;4863533;29;20360;-84
2023/10/20 01:58:34;;;;;;;;;;;8.70;99.90;;;;;;4863498;29;19932;-85
2023/10/20 02:01:00;;;;;;;;;;;8.70;99.90;;;;;;4862541;29;19935;-84
2023/10/20 02:03:25;;;;;;;;;;;8.60;99.90;;;;;;4863369;29;20344;-85
2023/10/20 02:05:51;;;;;;;;;;;8.60;99.90;;;;;;4863390;29;19935;-85
2023/10/20 02:08:17;;;;;;;;;;;8.60;99.90;;;;;;4863251;29;19951;-87
2023/10/20 02:10:43;;;;;;;;;;;8.60;99.90;;;;;;4862430;29;19935;-86
2023/10/20 02:13:10;;;;;;;;;;;8.60;99.90;;;;;;4861826;29;19975;-86
2023/10/20 02:15:35;;;;;;;;;;;8.60;99.90;;;;;;4847842;29;20268;-86
2023/10/20 02:18:01;;;;;;;;;;;8.60;99.90;;;;;;4862796;29;19928;-89
2023/10/20 02:20:27;;;;;;;;;;;8.60;99.90;;;;;;4863062;29;19928;-83
2023/10/20 02:22:53;;;;;;;;;;;8.60;99.90;;;;;;4862404;29;19928;-86
2023/10/20 02:25:18;;;;;;;;;;;8.60;99.90;;;;;;4862138;29;19928;-86
2023/10/20 02:27:45;;;;;;;;;;;8.50;99.90;;;;;;4846510;29;19932;-85
2023/10/20 02:30:15;;;;;;;;;;;8.60;99.90;;;;;;4861732;29;20406;-86
2023/10/20 02:32:41;;;;;;;;;;;8.50;99.90;;;;;;4862779;29;20388;-84
2023/10/20 02:35:11;;;;;;;;;;;8.50;99.90;;;;;;4862796;29;19928;-85
2023/10/20 02:37:36;;;;;;;;;;;8.50;99.90;;;;;;4861693;29;19979;-85
2023/10/20 02:40:04;;;;;;;;;;;8.50;99.90;;;;;;4862571;29;19982;-86
2023/10/20 02:42:31;;;;;;;;;;;8.50;99.90;;;;;;4862824;29;19950;-84
2023/10/20 02:44:56;;;;;;;;;;;8.50;99.90;;;;;;4862678;29;20005;-88
2023/10/20 02:47:22;;;;;;;;;;;8.50;99.90;;;;;;4862368;29;19928;-86
2023/10/20 02:49:51;;;;;;;;;;;8.50;99.90;;;;;;4862052;29;20391;-85
2023/10/20 02:52:17;;;;;;;;;;;8.50;99.90;;;;;;4861516;29;20295;-86
2023/10/20 02:54:43;;;;;;;;;;;8.50;99.90;;;;;;4862562;29;19928;-86
2023/10/20 02:57:08;;;;;;;;;;;8.50;99.90;;;;;;4862478;29;19928;-85
2023/10/20 02:59:34;;;;;;;;;;;8.50;99.90;;;;;;4862426;29;19939;-84
2023/10/20 03:02:00;;;;;;;;;;;8.50;99.90;;;;;;4863202;29;19928;-85
2023/10/20 03:04:25;;;;;;;;;;;8.50;99.90;;;;;;4861097;29;20348;-88
2023/10/20 03:06:51;;;;;;;;;;;8.50;99.90;;;;;;4862236;29;19976;-86
2023/10/20 03:09:17;;;;;;;;;;;8.50;99.90;;;;;;4861225;29;20019;-84
2023/10/20 03:11:43;;;;;;;;;;;8.50;99.90;;;;;;4861242;29;19928;-88
2023/10/20 03:14:09;;;;;;;;;;;8.50;99.90;;;;;;4861680;29;19928;-85
2023/10/20 03:16:38;;;;;;;;;;;8.40;99.90;;;;;;4860793;29;19932;-85
2023/10/20 03:19:04;;;;;;;;;;;8.40;99.90;;;;;;4862982;29;19935;-84
2023/10/20 03:21:30;;;;;;;;;;;8.40;99.90;;;;;;4865047;29;19929;-84
2023/10/20 03:23:56;;;;;;;;;;;8.40;99.90;;;;;;4861572;29;19935;-86
2023/10/20 03:26:22;;;;;;;;;;;8.40;99.90;;;;;;4862201;29;20304;-85
2023/10/20 03:28:48;;;;;;;;;;;8.40;99.90;;;;;;4860903;29;19928;-85
2023/10/20 03:31:13;;;;;;;;;;;8.40;99.90;;;;;;4861730;29;19929;-86
2023/10/20 03:33:39;;;;;;;;;;;8.40;99.90;;;;;;4862924;29;19928;-86
2023/10/20 03:36:05;;;;;;;;;;;8.40;99.90;;;;;;4862183;29;20303;-86
2023/10/20 03:38:31;;;;;;;;;;;8.30;99.90;;;;;;4862161;29;19976;-86
2023/10/20 03:41:09;;;;;;;;;;;8.30;99.90;;;;;;4860784;29;19928;-86
2023/10/20 03:43:35;;;;;;;;;;;8.30;99.90;;;;;;4860466;29;19947;-85
2023/10/20 03:46:01;;;;;;;;;;;8.30;99.90;;;;;;4862176;29;20019;-85
2023/10/20 03:48:29;;;;;;;;;;;8.30;99.90;;;;;;4861297;29;19978;-86
2023/10/20 03:50:55;;;;;;;;;;;8.30;99.90;;;;;;4862050;29;19939;-87
2023/10/20 03:53:27;;;;;;;;;;;8.30;99.90;;;;;;4861623;29;19928;-86
2023/10/20 03:56:00;;;;;;;;;;;8.30;99.90;;;;;;4861020;29;19928;-85
2023/10/20 03:58:26;;;;;;;;;;;8.30;99.90;;;;;;4860317;29;20435;-86
2023/10/20 04:00:57;;;;;;;;;;;8.30;99.90;;;;;;4861502;29;19928;-85
2023/10/20 04:03:25;;;;;;;;;;;8.30;99.90;;;;;;4861529;29;19936;-85
2023/10/20 04:05:51;;;;;;;;;;;8.30;99.90;;;;;;4861532;29;20333;-86
2023/10/20 04:08:17;;;;;;;;;;;8.30;99.90;;;;;;4860363;29;19943;-88
2023/10/20 04:10:43;;;;;;;;;;;8.30;99.90;;;;;;4861369;29;19928;-85
2023/10/20 04:13:09;;;;;;;;;;;8.30;99.90;;;;;;4861703;29;19932;-85
2023/10/20 04:15:36;;;;;;;;;;;8.30;99.90;;;;;;4862158;29;19936;-86
2023/10/20 04:18:03;;;;;;;;;;;8.30;99.90;;;;;;4861200;29;20253;-88
2023/10/20 04:20:29;;;;;;;;;;;8.30;99.90;;;;;;4844743;29;19935;-85
2023/10/20 04:22:55;;;;;;;;;;;8.30;99.90;;;;;;4861183;29;19928;-85
2023/10/20 04:25:21;;;;;;;;;;;8.30;99.90;;;;;;4859975;29;19928;-85
2023/10/20 05:00:37;;;;;;;;;;;8.30;99.90;;;;;;4863639;29;19958;-86
2023/10/20 05:02:56;;;;;;;;;;;8.30;99.90;;;;;;4857852;29;20378;-86
2023/10/20 05:05:39;;;;;;;;;;;8.30;99.90;;;;;;4863524;29;19928;-86
2023/10/20 05:08:17;;;;;;;;;;;8.30;99.90;;;;;;4863706;29;19943;-85
2023/10/20 05:10:43;;;;;;;;;;;8.30;99.90;;;;;;4863797;29;19928;-85
2023/10/20 05:13:12;;;;;;;;;;;8.30;99.90;;;;;;4863033;29;20304;-87
2023/10/20 05:15:41;;;;;;;;;;;8.30;99.90;;;;;;4864203;29;19928;-85
2023/10/20 05:18:11;;;;;;;;;;;8.30;99.90;;;;;;4863386;29;19935;-85
2023/10/20 05:20:42;;;;;;;;;;;8.30;99.90;;;;;;4867389;29;19986;-86
2023/10/20 05:23:10;;;;;;;;;;;8.20;99.90;;;;;;4866109;29;20344;-86
2023/10/20 05:25:36;;;;;;;;;;;8.30;99.90;;;;;;4866789;29;19928;-85
2023/10/20 05:28:01;;;;;;;;;;;8.30;99.90;;;;;;4865936;29;19999;-85
2023/10/20 05:30:27;;;;;;;;;;;8.30;99.90;;;;;;4865209;29;20311;-85
2023/10/20 05:32:53;;;;;;;;;;;8.30;99.90;;;;;;4864323;29;19935;-86
2023/10/20 05:35:18;;;;;;;;;;;8.30;99.90;;;;;;4863851;29;19935;-86
2023/10/20 05:37:44;;;;;;;;;;;8.30;99.90;;;;;;4863873;29;20308;-88
2023/10/20 05:40:13;;;;;;;;;;;8.30;99.90;;;;;;4864237;29;20315;-84
2023/10/20 05:42:38;;;;;;;;;;;8.30;99.90;;;;;;4863707;29;19936;-86
2023/10/20 05:45:10;;;;;;;;;;;8.30;99.90;;;;;;4863079;29;19932;-86
2023/10/20 05:47:36;;;;;;;;;;;8.30;99.90;;;;;;4864560;29;19928;-85
2023/10/20 05:50:02;;;;;;;;;;;8.30;99.90;;;;;;4863732;29;19957;-85
2023/10/20 05:52:28;;;;;;;;;;;8.30;99.90;;;;;;4863581;29;19984;-86
2023/10/20 05:54:59;;;;;;;;;;;8.20;99.90;;;;;;4863592;29;19928;-86
2023/10/20 05:57:28;;;;;;;;;;;8.20;99.90;;;;;;4862966;29;19932;-86
2023/10/20 05:59:54;;;;;;;;;;;8.20;99.90;;;;;;4864031;29;19935;-87
2023/10/20 06:02:20;;;;;;;;;;;8.20;99.90;;;;;;4862416;29;19967;-85
2023/10/20 06:04:46;;;;;;;;;;;8.20;99.90;;;;;;4862259;29;19967;-85
2023/10/20 06:07:11;;;;;;;;;;;8.20;99.90;;;;;;4863375;29;19928;-84
2023/10/20 06:09:37;;;;;;;;;;;8.20;99.90;;;;;;4862508;29;19928;-84
2023/10/20 06:12:03;;;;;;;;;;;8.20;99.90;;;;;;4862006;29;19928;-85
2023/10/20 06:14:30;;;;;;;;;;;8.20;99.90;;;;;;4863237;29;20380;-86
2023/10/20 06:16:56;;;;;;;;;;;8.20;99.90;;;;;;4863096;29;20377;-83
2023/10/20 06:19:21;;;;;;;;;;;8.20;99.90;;;;;;4862338;29;19934;-86
2023/10/20 06:21:48;;;;;;;;;;;8.20;99.90;;;;;;4862877;29;20404;-85
2023/10/20 06:24:13;;;;;;;;;;;8.20;99.90;;;;;;4862941;29;19928;-84
2023/10/20 06:26:39;;;;;;;;;;;8.10;99.90;;;;;;4846373;29;20311;-85
2023/10/20 06:29:26;;;;;;;;;;;8.20;99.90;;;;;;4862848;29;19932;-84
2023/10/20 06:34:42;;;;;;;;;;;8.10;99.90;;;;;;4861839;29;19928;-85
2023/10/20 06:39:33;;;;;;;;;;;8.10;99.90;;;;;;4862648;29;19935;-87
2023/10/20 06:41:58;;;;;;;;;;;8.10;99.90;;;;;;4862468;29;19928;-84
2023/10/20 06:44:24;;;;;;;;;;;8.10;99.90;;;;;;4862201;29;19936;-86
2023/10/20 06:46:51;;;;;;;;;;;8.00;99.90;;;;;;4862726;29;19928;-84
2023/10/20 06:49:18;;;;;;;;;;;8.10;99.90;;;;;;4862206;29;20387;-87
2023/10/20 06:51:45;;;;;;;;;;;8.10;99.90;;;;;;4862074;29;19980;-84
2023/10/20 06:54:12;;;;;;;;;;;8.10;99.90;;;;;;4863757;29;20372;-85
2023/10/20 06:56:37;;;;;;;;;;;8.10;99.90;;;;;;4865076;29;20035;-86
2023/10/20 06:59:03;;;;;;;;;;;8.10;99.90;;;;;;4862451;29;19928;-88
2023/10/20 07:01:32;;;;;;;;;;;8.10;99.90;;;;;;4862454;29;19928;-85
2023/10/20 07:03:58;;;;;;;;;;;8.10;99.90;;;;;;4861436;29;19932;-85
2023/10/20 07:06:23;;;;;;;;;;;8.10;99.90;;;;;;4862563;29;20019;-88
2023/10/20 07:08:50;;;;;;;;;;;8.10;99.90;;;;;;4862390;29;19935;-87
2023/10/20 07:11:16;;;;;;;;;;;8.10;99.90;;;;;;4862089;29;19935;-87
2023/10/20 07:13:46;;;;;;;;;;;8.10;99.90;;;;;;4861049;29;21319;-84
2023/10/20 07:16:12;;;;;;;;;;;8.10;99.90;;;;;;4861698;29;20043;-85
2023/10/20 07:18:38;;;;;;;;;;;8.00;99.90;;;;;;4860996;29;19936;-83
2023/10/20 07:21:04;;;;;;;;;;;8.10;99.90;;;;;;4862083;29;19928;-84
2023/10/20 07:23:30;;;;;;;;;;;8.10;99.90;;;;;;4861619;29;20415;-82
2023/10/20 07:25:55;;;;;;;;;;;8.00;99.90;;;;;;4862468;29;19928;-86
2023/10/20 07:28:21;;;;;;;;;;;8.00;99.90;;;;;;4845271;29;19996;-83
2023/10/20 07:30:47;;;;;;;;;;;8.00;99.90;;;;;;4861380;29;19967;-82
2023/10/20 07:33:12;;;;;;;;;;;8.00;99.90;;;;;;4861822;29;20006;-84
2023/10/20 07:35:38;;;;;;;;;;;8.00;99.90;;;;;;4860930;29;19960;-87
2023/10/20 07:38:04;;;;;;;;;;;8.00;99.90;;;;;;4861136;29;20375;-84
2023/10/20 07:40:34;;;;;;;;;;;8.00;99.90;;;;;;4860893;29;19928;-84
2023/10/20 07:43:06;;;;;;;;;;;7.90;99.90;;;;;;4860856;29;20391;-84
2023/10/20 07:45:37;;;;;;;;;;;7.90;99.90;;;;;;4862837;29;19936;-84
2023/10/20 07:48:05;;;;;;;;;;;7.90;99.90;;;;;;4861926;29;19985;-84
2023/10/20 07:50:31;;;;;;;;;;;7.90;99.90;;;;;;4861571;29;19935;-83
2023/10/20 07:52:56;;;;;;;;;;;8.00;99.90;;;;;;4861475;29;19928;-84
2023/10/20 07:55:22;;;;;;;;;;;7.90;99.90;;;;;;4861862;29;19936;-84
2023/10/20 07:57:48;;;;;;;;;;;8.00;99.90;;;;;;4861402;29;19929;-86
2023/10/20 08:00:13;;;;;;;;;;;8.00;99.90;;;;;;4861177;29;19928;-84
2023/10/20 08:02:39;;;;;;;;;;;8.00;99.90;;;;;;4862274;29;19935;-86
2023/10/20 08:05:05;;;;;;;;;;;8.00;99.90;;;;;;4860761;29;19932;-85
2023/10/20 08:07:31;;;;;;;;;;;7.90;99.90;;;;;;4861645;29;20300;-83
2023/10/20 08:09:56;;;;;;;;;;;8.00;99.90;;;;;;4862147;29;19928;-84
2023/10/20 08:12:22;;;;;;;;;;;7.90;99.90;;;;;;4860567;29;19928;-86
2023/10/20 08:14:49;;;;;;;;;;;7.90;99.90;;;;;;4862165;29;20337;-86
2023/10/20 08:17:14;;;;;;;;;;;7.90;99.90;;;;;;4867561;29;20001;-85
2023/10/20 08:19:44;;;;;;;;;;;7.90;99.90;;;;;;4867590;29;19928;-86
2023/10/20 08:22:09;;;;;;;;;;;7.90;99.90;;;;;;4867680;29;19928;-85
2023/10/20 08:24:35;;;;;;;;;;;7.90;99.90;;;;;;4867588;29;19935;-86
2023/10/20 08:27:01;;;;;;;;;;;7.90;99.90;;;;;;4867351;29;19935;-86
2023/10/20 08:29:27;;;;;;;;;;;7.90;99.90;;;;;;4868712;29;19935;-88
2023/10/20 08:31:52;;;;;;;;;;;7.90;99.90;;;;;;4869058;29;19957;-86
2023/10/20 08:34:18;;;;;;;;;;;7.90;99.90;;;;;;4866353;29;19929;-87
2023/10/20 08:36:44;;;;;;;;;;;7.90;99.90;;;;;;4867950;29;19928;-86
2023/10/20 08:39:20;;;;;;;;;;;7.90;99.90;;;;;;4867791;29;19928;-86
2023/10/20 08:41:46;;;;;;;;;;;7.90;99.90;;;;;;4867065;29;20326;-86
2023/10/20 08:44:11;;;;;;;;;;;7.90;99.90;;;;;;4866118;29;20011;-88
2023/10/20 08:46:41;;;;;;;;;;;7.90;99.90;;;;;;4867275;29;19934;-88
2023/10/20 08:49:07;;;;;;;;;;;7.90;99.90;;;;;;4867188;29;19928;-87
2023/10/20 08:51:35;;;;;;;;;;;7.90;99.90;;;;;;4866307;29;19928;-86
2023/10/20 08:54:01;;;;;;;;;;;7.90;99.90;;;;;;4865941;29;19928;-87
2023/10/20 08:56:27;;;;;;;;;;;7.90;99.90;;;;;;4866350;29;20024;-86
2023/10/20 08:58:53;;;;;;;;;;;7.90;99.90;;;;;;4866932;29;19976;-90
2023/10/20 09:01:19;;;;;;;;;;;7.90;99.90;;;;;;4866413;29;19928;-87
2023/10/20 09:03:46;;;;;;;;;;;7.90;99.90;;;;;;4867779;29;20383;-87
2023/10/20 09:06:14;;;;;;;;;;;7.90;99.90;;;;;;4866178;29;20384;-88
2023/10/20 09:08:45;;;;;;;;;;;7.90;99.90;;;;;;4881910;29;19935;-89
2023/10/20 09:11:11;;;;;;;;;;;7.90;99.90;;;;;;4867700;29;19928;-88
2023/10/20 09:13:39;;;;;;;;;;;7.90;99.90;;;;;;4850492;29;19969;-86
2023/10/20 09:16:07;;;;;;;;;;;7.90;99.90;;;;;;4866872;29;20026;-86
2023/10/20 09:18:49;;;;;;;;;;;7.90;99.90;;;;;;4866246;29;19928;-86
2023/10/20 09:21:16;;;;;;;;;;;7.90;99.90;;;;;;4867585;29;19932;-86
2023/10/20 09:23:54;;;;;;;;;;;7.90;99.90;;;;;;4867093;29;19951;-86
2023/10/20 09:26:20;;;;;;;;;;;7.90;99.90;;;;;;4867253;29;19928;-86
2023/10/20 09:28:49;;;;;;;;;;;7.90;99.90;;;;;;4862780;29;19928;-86
2023/10/20 09:31:19;;;;;;;;;;;7.90;99.90;;;;;;4863334;29;19932;-86
2023/10/20 09:33:44;;;;;;;;;;;7.80;99.90;;;;;;4863342;29;20054;-88
2023/10/20 09:36:13;;;;;;;;;;;7.90;99.90;;;;;;4863933;29;19992;-86
2023/10/20 09:38:39;;;;;;;;;;;7.80;99.90;;;;;;4864037;29;19929;-85
2023/10/20 09:41:11;;;;;;;;;;;7.90;99.90;;;;;;4864408;29;19935;-86
2023/10/20 09:43:40;;;;;;;;;;;7.90;99.90;;;;;;4864256;29;19928;-88
2023/10/20 09:46:14;;;;;;;;;;;7.80;99.90;;;;;;4862422;29;19932;-86
2023/10/20 09:48:40;;;;;;;;;;;7.80;99.90;;;;;;4862381;29;19928;-87
2023/10/20 09:51:08;;;;;;;;;;;7.90;99.90;;;;;;4862725;29;19975;-86
2023/10/20 09:53:34;;;;;;;;;;;7.80;99.90;;;;;;4863325;29;19932;-88
2023/10/20 09:56:00;;;;;;;;;;;7.80;99.90;;;;;;4863579;29;19928;-86
2023/10/20 09:58:26;;;;;;;;;;;7.80;99.90;;;;;;4863601;29;19928;-86
2023/10/20 10:00:54;;;;;;;;;;;7.80;99.90;;;;;;4864363;29;20244;-84
2023/10/20 10:03:29;;;;;;;;;;;7.80;99.90;;;;;;4862514;29;19928;-85
2023/10/20 10:05:55;;;;;;;;;;;7.80;99.90;;;;;;4863299;29;19932;-85
2023/10/20 10:08:21;;;;;;;;;;;7.80;99.90;;;;;;4861768;29;19937;-87
2023/10/20 10:10:48;;;;;;;;;;;7.80;99.90;;;;;;4863435;29;19928;-86
2023/10/20 10:13:14;;;;;;;;;;;7.80;99.90;;;;;;4861785;29;20288;-86
2023/10/20 10:15:41;;;;;;;;;;;7.80;99.90;;;;;;4862199;29;19932;-86
2023/10/20 10:18:10;;;;;;;;;;;7.80;99.90;;;;;;4862962;29;20463;-86
2023/10/20 10:20:43;;;;;;;;;;;7.80;99.90;;;;;;4862777;29;20014;-86
2023/10/20 10:23:14;;;;;;;;;;;7.70;99.90;;;;;;4861920;29;19928;-86
2023/10/20 10:25:42;;;;;;;;;;;7.80;99.90;;;;;;4862222;29;19932;-84
2023/10/20 10:28:09;;;;;;;;;;;7.70;99.90;;;;;;4862770;29;20049;-85
2023/10/20 10:30:36;;;;;;;;;;;7.70;99.90;;;;;;4862106;29;20022;-84
2023/10/20 10:33:01;;;;;;;;;;;7.80;99.90;;;;;;4847438;29;19928;-84
2023/10/20 10:35:28;;;;;;;;;;;7.80;99.90;;;;;;4861899;29;19928;-84
2023/10/20 10:37:54;;;;;;;;;;;7.70;99.90;;;;;;4863002;29;19928;-85
2023/10/20 10:40:22;;;;;;;;;;;7.70;99.90;;;;;;4861725;29;19928;-86
2023/10/20 10:42:51;;;;;;;;;;;7.80;99.90;;;;;;4861575;29;19928;-85
2023/10/20 10:45:27;;;;;;;;;;;7.80;99.90;;;;;;4861763;29;20416;-85
2023/10/20 10:48:22;;;;;;;;;;;7.70;99.90;;;;;;4863338;29;19928;-86
2023/10/20 10:50:48;;;;;;;;;;;7.70;99.90;;;;;;4846039;29;19950;-85
2023/10/20 10:53:14;;;;;;;;;;;7.70;99.90;;;;;;4861633;29;20392;-85
2023/10/20 10:55:43;;;;;;;;;;;7.70;99.90;;;;;;4861813;29;19930;-86
2023/10/20 10:58:10;;;;;;;;;;;7.70;99.90;;;;;;4864352;29;19935;-89
2023/10/20 11:00:36;;;;;;;;;;;7.70;99.90;;;;;;4863447;29;20368;-85
2023/10/20 11:03:02;;;;;;;;;;;7.70;99.90;;;;;;4862300;29;20264;-83
2023/10/20 11:05:29;;;;;;;;;;;7.70;99.90;;;;;;4862242;29;20032;-87
2023/10/20 11:07:55;;;;;;;;;;;7.70;99.90;;;;;;4862501;29;19983;-87
2023/10/20 11:10:21;;;;;;;;;;;7.70;99.90;;;;;;4861334;29;20364;-85
2023/10/20 11:12:50;;;;;;;;;;;7.60;99.90;;;;;;4860868;29;19935;-88
2023/10/20 11:15:15;;;;;;;;;;;7.60;99.90;;;;;;4861522;29;19932;-92
2023/10/20 11:17:42;;;;;;;;;;;7.60;99.90;;;;;;4862350;29;20289;-87
2023/10/20 11:20:09;;;;;;;;;;;7.70;99.90;;;;;;4862367;29;19928;-84
2023/10/20 11:22:38;;;;;;;;;;;7.70;99.90;;;;;;4861212;29;19936;-86
2023/10/20 11:25:05;;;;;;;;;;;7.70;99.90;;;;;;4862058;29;20022;-82
2023/10/20 11:27:43;;;;;;;;;;;7.60;99.90;;;;;;4861009;29;19928;-83
2023/10/20 11:30:12;;;;;;;;;;;7.60;99.90;;;;;;4860559;29;19935;-85
2023/10/20 11:32:37;;;;;;;;;;;7.60;99.90;;;;;;4861844;29;19928;-85
2023/10/20 11:35:04;;;;;;;;;;;7.60;99.90;;;;;;4860780;29;19928;-86
2023/10/20 11:37:29;;;;;;;;;;;7.60;99.90;;;;;;4860355;29;19935;-88
2023/10/20 11:39:55;;;;;;;;;;;7.60;99.90;;;;;;4861128;29;19932;-85
2023/10/20 11:42:21;;;;;;;;;;;7.60;99.90;;;;;;4859930;29;19928;-87
2023/10/20 11:44:46;;;;;;;;;;;7.60;99.90;;;;;;4860340;29;20061;-87
2023/10/20 11:47:12;;;;;;;;;;;7.60;99.90;;;;;;4861778;29;19971;-87
2023/10/20 11:49:37;;;;;;;;;;;7.60;99.90;;;;;;4860983;29;19928;-85
2023/10/20 11:52:07;;;;;;;;;;;7.60;99.90;;;;;;4860568;29;20310;-87
2023/10/20 11:54:32;;;;;;;;;;;7.60;99.90;;;;;;4845990;29;19950;-85
2023/10/20 11:56:58;;;;;;;;;;;7.60;99.90;;;;;;4862020;29;20380;-87
2023/10/20 11:59:24;;;;;;;;;;;7.60;99.90;;;;;;4861171;29;19928;-87
2023/10/20 12:01:49;;;;;;;;;;;7.60;99.90;;;;;;4860342;29;19928;-87
2023/10/20 12:04:15;;;;;;;;;;;7.60;99.90;;;;;;4860411;29;19979;-88
2023/10/20 12:06:40;;;;;;;;;;;7.60;99.90;;;;;;4860680;29;20366;-90
2023/10/20 12:09:10;;;;;;;;;;;7.60;99.90;;;;;;4860323;29;19928;-87
2023/10/20 12:11:36;;;;;;;;;;;7.60;99.90;;;;;;4861543;29;19935;-87
2023/10/20 12:14:03;;;;;;;;;;;7.60;99.90;;;;;;4860303;29;20019;-86
2023/10/20 12:16:29;;;;;;;;;;;7.60;99.90;;;;;;4861670;29;20021;-88
2023/10/20 12:18:54;;;;;;;;;;;7.60;99.90;;;;;;4862199;29;19935;-85
2023/10/20 12:21:20;;;;;;;;;;;7.60;99.90;;;;;;4862222;29;19928;-86
2023/10/20 12:23:46;;;;;;;;;;;7.60;99.90;;;;;;4860601;29;20395;-86
2023/10/20 12:26:11;;;;;;;;;;;7.60;99.90;;;;;;4860746;29;19984;-88
2023/10/20 12:28:37;;;;;;;;;;;7.60;99.90;;;;;;4863881;29;19935;-88
2023/10/20 12:31:02;;;;;;;;;;;7.70;99.90;;;;;;4861159;29;19928;-87
2023/10/20 12:33:28;;;;;;;;;;;7.60;99.90;;;;;;4861191;29;20337;-88
2023/10/20 12:35:54;;;;;;;;;;;7.70;99.90;;;;;;4861518;29;19928;-88
2023/10/20 12:38:20;;;;;;;;;;;7.60;99.90;;;;;;4860276;29;19934;-86
2023/10/20 12:40:46;;;;;;;;;;;7.60;99.90;;;;;;4859984;29;19938;-87
2023/10/20 12:43:11;;;;;;;;;;;7.60;99.90;;;;;;4860121;29;19928;-87
2023/10/20 12:45:38;;;;;;;;;;;7.60;99.90;;;;;;4861214;29;20000;-88
2023/10/20 12:48:04;;;;;;;;;;;7.60;99.90;;;;;;4861021;29;19928;-88
2023/10/20 12:50:32;;;;;;;;;;;7.60;99.90;;;;;;4860043;29;19936;-86
2023/10/20 12:52:58;;;;;;;;;;;7.60;99.90;;;;;;4860991;29;19935;-88
2023/10/20 12:55:26;;;;;;;;;;;7.50;99.90;;;;;;4861042;29;19929;-87
2023/10/20 12:57:52;;;;;;;;;;;7.50;99.90;;;;;;4860047;29;20014;-87
2023/10/20 13:00:17;;;;;;;;;;;7.50;99.90;;;;;;4861280;29;19928;-87
2023/10/20 13:02:43;;;;;;;;;;;7.50;99.90;;;;;;4862945;29;19934;-87
2023/10/20 13:05:09;;;;;;;;;;;7.50;99.90;;;;;;4864304;29;19928;-91
2023/10/20 13:07:35;;;;;;;;;;;7.50;99.90;;;;;;4865227;29;19932;-88
2023/10/20 13:10:04;;;;;;;;;;;7.50;99.90;;;;;;4863974;29;20047;-87
2023/10/20 13:12:30;;;;;;;;;;;7.50;99.90;;;;;;4865420;29;19939;-87
2023/10/20 13:14:56;;;;;;;;;;;7.50;99.90;;;;;;4865854;29;20273;-85
2023/10/20 13:17:22;;;;;;;;;;;7.50;99.90;;;;;;4863763;29;20379;-87
2023/10/20 13:19:49;;;;;;;;;;;7.50;99.90;;;;;;4863655;29;19932;-87
2023/10/20 13:22:15;;;;;;;;;;;7.50;99.90;;;;;;4863845;29;19932;-87
2023/10/20 13:24:41;;;;;;;;;;;7.40;99.90;;;;;;4865163;29;20375;-87
2023/10/20 13:27:06;;;;;;;;;;;7.50;99.90;;;;;;4864382;29;19974;-86
2023/10/20 13:29:32;;;;;;;;;;;7.50;99.90;;;;;;4864229;29;19928;-88
2023/10/20 13:31:58;;;;;;;;;;;7.50;99.90;;;;;;4863299;29;19935;-86
2023/10/20 13:34:23;;;;;;;;;;;7.50;99.90;;;;;;4865010;29;19928;-87
2023/10/20 13:36:49;;;;;;;;;;;7.50;99.90;;;;;;4863142;29;20368;-87
2023/10/20 13:39:16;;;;;;;;;;;7.50;99.90;;;;;;4863434;29;19932;-88
2023/10/20 13:41:42;;;;;;;;;;;7.50;99.90;;;;;;4863440;29;20011;-87
2023/10/20 13:44:09;;;;;;;;;;;7.40;99.90;;;;;;4863133;29;19971;-86
2023/10/20 13:46:35;;;;;;;;;;;7.50;99.90;;;;;;4863570;29;19938;-87
2023/10/20 13:49:01;;;;;;;;;;;7.40;99.90;;;;;;4862863;29;20019;-86
2023/10/20 13:51:27;;;;;;;;;;;7.40;99.90;;;;;;4864080;29;19981;-87
2023/10/20 13:53:52;;;;;;;;;;;7.40;99.90;;;;;;4862884;29;19929;-87
2023/10/20 13:56:18;;;;;;;;;;;7.40;99.90;;;;;;4862629;29;19928;-87
2023/10/20 13:58:44;;;;;;;;;;;7.40;99.90;;;;;;4862746;29;20384;-85
2023/10/20 14:01:09;;;;;;;;;;;7.40;99.90;;;;;;4862851;29;19940;-87
2023/10/20 14:03:35;;;;;;;;;;;7.30;99.90;;;;;;4847381;29;19939;-87
2023/10/20 14:06:02;;;;;;;;;;;7.30;99.90;;;;;;4864342;29;19928;-86
2023/10/20 14:08:28;;;;;;;;;;;7.30;99.90;;;;;;4862824;29;19975;-87
2023/10/20 14:10:55;;;;;;;;;;;7.30;99.90;;;;;;4862537;29;20423;-87
2023/10/20 14:13:20;;;;;;;;;;;7.30;99.90;;;;;;4862442;29;20275;-87
2023/10/20 14:15:46;;;;;;;;;;;7.30;99.90;;;;;;4863395;29;19937;-86
2023/10/20 14:18:12;;;;;;;;;;;7.30;99.90;;;;;;4862804;29;19929;-85
2023/10/20 14:20:39;;;;;;;;;;;7.30;99.90;;;;;;4862598;29;20448;-85
2023/10/20 14:23:04;;;;;;;;;;;7.30;99.90;;;;;;4863765;29;19998;-86
2023/10/20 14:25:30;;;;;;;;;;;7.30;99.90;;;;;;4862301;29;19928;-86
2023/10/20 14:27:56;;;;;;;;;;;7.30;99.90;;;;;;4862114;29;20439;-87
2023/10/20 14:30:21;;;;;;;;;;;7.30;99.90;;;;;;4861869;29;19928;-88
2023/10/20 14:32:47;;;;;;;;;;;7.20;99.90;;;;;;4846726;29;19984;-87
2023/10/20 14:35:13;;;;;;;;;;;7.20;99.90;;;;;;4846916;29;19951;-87
2023/10/20 14:37:38;;;;;;;;;;;7.20;99.90;;;;;;4861715;29;19928;-86
2023/10/20 14:40:04;;;;;;;;;;;7.20;99.90;;;;;;4862214;29;19928;-86
2023/10/20 14:42:30;;;;;;;;;;;7.20;99.90;;;;;;4862006;29;20314;-88
2023/10/20 14:44:56;;;;;;;;;;;7.20;99.90;;;;;;4861748;29;19932;-88
2023/10/20 14:47:21;;;;;;;;;;;7.20;99.90;;;;;;4862844;29;19935;-88
2023/10/20 14:49:47;;;;;;;;;;;7.20;99.90;;;;;;4861924;29;19935;-88
2023/10/20 14:52:13;;;;;;;;;;;7.20;99.90;;;;;;4861153;29;19935;-85
2023/10/20 14:54:39;;;;;;;;;;;7.20;99.90;;;;;;4861774;29;19959;-87
2023/10/20 14:57:04;;;;;;;;;;;7.20;99.90;;;;;;4861324;29;20285;-83
2023/10/20 14:59:30;;;;;;;;;;;7.20;99.90;;;;;;4862463;29;19935;-87
2023/10/20 15:01:56;;;;;;;;;;;7.10;99.90;;;;;;4861027;29;20380;-86
2023/10/20 15:04:21;;;;;;;;;;;7.20;99.90;;;;;;4862956;29;19957;-89
2023/10/20 15:06:47;;;;;;;;;;;7.20;99.90;;;;;;4861029;29;20376;-88